sensor_id;sensor_type;location;lat;lon;timestamp;P1;durP1;ratioP1;P2;durP2;ratioP2
52268;SDS011;38224;50.950;4.100;2023-07-13T00:02:02;5.68;;;2.40;;
52268;SDS011;38224;50.950;4.100;2023-07-13T00:04:27;11.35;;;2.42;;
52268;SDS011;38224;50.950;4.100;2023-07-13T00:06:53;6.87;;;1.60;;
52268;SDS011;38224;50.950;4.100;2023-07-13T00:09:18;6.82;;;1.90;;
52268;SDS011;38224;50.950;4.100;2023-07-13T00:11:45;11.88;;;2.50;;
52268;SDS011;38224;50.950;4.100;2023-07-13T00:14:12;8.95;;;2.10;;
52268;SDS011;38224;50.950;4.100;2023-07-13T00:16:38;8.63;;;3.55;;
52268;SDS011;38224;50.950;4.100;2023-07-13T00:19:05;13.60;;;2.13;;
52268;SDS011;38224;50.950;4.100;2023-07-13T00:21:31;6.72;;;2.03;;
52268;SDS011;38224;50.950;4.100;2023-07-13T00:23:56;8.67;;;2.30;;
52268;SDS011;38224;50.950;4.100;2023-07-13T00:26:22;11.80;;;2.00;;
52268;SDS011;38224;50.950;4.100;2023-07-13T00:28:47;12.10;;;2.28;;
52268;SDS011;38224;50.950;4.100;2023-07-13T00:31:13;7.87;;;2.23;;
52268;SDS011;38224;50.950;4.100;2023-07-13T00:33:39;13.65;;;2.08;;
52268;SDS011;38224;50.950;4.100;2023-07-13T00:36:05;8.63;;;2.08;;
52268;SDS011;38224;50.950;4.100;2023-07-13T00:38:30;11.35;;;2.58;;
52268;SDS011;38224;50.950;4.100;2023-07-13T00:40:56;11.23;;;1.77;;
52268;SDS011;38224;50.950;4.100;2023-07-13T00:43:22;11.98;;;2.30;;
52268;SDS011;38224;50.950;4.100;2023-07-13T00:48:14;8.48;;;2.05;;
52268;SDS011;38224;50.950;4.100;2023-07-13T00:50:40;10.93;;;2.28;;
52268;SDS011;38224;50.950;4.100;2023-07-13T00:53:06;12.07;;;3.22;;
52268;SDS011;38224;50.950;4.100;2023-07-13T00:55:32;9.90;;;1.98;;
52268;SDS011;38224;50.950;4.100;2023-07-13T00:57:58;10.68;;;2.05;;
52268;SDS011;38224;50.950;4.100;2023-07-13T01:00:23;10.25;;;2.20;;
52268;SDS011;38224;50.950;4.100;2023-07-13T01:02:50;8.90;;;2.03;;
52268;SDS011;38224;50.950;4.100;2023-07-13T01:05:17;10.90;;;2.30;;
52268;SDS011;38224;50.950;4.100;2023-07-13T01:07:43;6.13;;;1.90;;
52268;SDS011;38224;50.950;4.100;2023-07-13T01:10:09;10.38;;;2.60;;
52268;SDS011;38224;50.950;4.100;2023-07-13T01:12:35;9.45;;;2.80;;
52268;SDS011;38224;50.950;4.100;2023-07-13T01:15:01;10.05;;;1.90;;
52268;SDS011;38224;50.950;4.100;2023-07-13T01:17:28;16.73;;;2.60;;
52268;SDS011;38224;50.950;4.100;2023-07-13T01:19:53;7.47;;;2.03;;
52268;SDS011;38224;50.950;4.100;2023-07-13T01:22:19;13.50;;;2.35;;
52268;SDS011;38224;50.950;4.100;2023-07-13T01:24:45;6.15;;;2.40;;
52268;SDS011;38224;50.950;4.100;2023-07-13T01:27:12;7.57;;;2.13;;
52268;SDS011;38224;50.950;4.100;2023-07-13T01:29:38;12.23;;;3.00;;
52268;SDS011;38224;50.950;4.100;2023-07-13T01:32:07;13.15;;;2.35;;
52268;SDS011;38224;50.950;4.100;2023-07-13T01:34:33;6.78;;;2.35;;
52268;SDS011;38224;50.950;4.100;2023-07-13T01:36:58;15.45;;;2.28;;
52268;SDS011;38224;50.950;4.100;2023-07-13T01:39:23;9.63;;;2.67;;
52268;SDS011;38224;50.950;4.100;2023-07-13T01:41:49;7.75;;;2.53;;
52268;SDS011;38224;50.950;4.100;2023-07-13T01:44:14;13.07;;;2.50;;
52268;SDS011;38224;50.950;4.100;2023-07-13T01:46:39;13.80;;;2.30;;
52268;SDS011;38224;50.950;4.100;2023-07-13T01:49:05;9.97;;;2.40;;
52268;SDS011;38224;50.950;4.100;2023-07-13T01:51:30;13.48;;;4.22;;
52268;SDS011;38224;50.950;4.100;2023-07-13T01:53:55;7.63;;;1.87;;
52268;SDS011;38224;50.950;4.100;2023-07-13T01:56:21;9.15;;;2.58;;
52268;SDS011;38224;50.950;4.100;2023-07-13T01:58:46;11.32;;;2.30;;
52268;SDS011;38224;50.950;4.100;2023-07-13T02:01:12;8.38;;;2.28;;
52268;SDS011;38224;50.950;4.100;2023-07-13T02:03:37;11.93;;;2.70;;
52268;SDS011;38224;50.950;4.100;2023-07-13T02:06:02;9.40;;;3.70;;
52268;SDS011;38224;50.950;4.100;2023-07-13T02:08:28;10.82;;;2.30;;
52268;SDS011;38224;50.950;4.100;2023-07-13T02:10:53;10.15;;;2.50;;
52268;SDS011;38224;50.950;4.100;2023-07-13T02:13:18;10.50;;;2.67;;
52268;SDS011;38224;50.950;4.100;2023-07-13T02:15:43;17.20;;;2.90;;
52268;SDS011;38224;50.950;4.100;2023-07-13T02:18:09;15.17;;;2.70;;
52268;SDS011;38224;50.950;4.100;2023-07-13T02:20:34;9.30;;;2.20;;
52268;SDS011;38224;50.950;4.100;2023-07-13T02:23:00;14.75;;;2.42;;
52268;SDS011;38224;50.950;4.100;2023-07-13T02:25:25;12.10;;;2.70;;
52268;SDS011;38224;50.950;4.100;2023-07-13T02:27:51;13.63;;;3.78;;
52268;SDS011;38224;50.950;4.100;2023-07-13T02:30:17;16.38;;;3.10;;
52268;SDS011;38224;50.950;4.100;2023-07-13T02:32:42;6.38;;;2.00;;
52268;SDS011;38224;50.950;4.100;2023-07-13T02:35:09;11.40;;;2.72;;
52268;SDS011;38224;50.950;4.100;2023-07-13T02:37:34;21.02;;;3.83;;
52268;SDS011;38224;50.950;4.100;2023-07-13T02:39:59;7.53;;;2.80;;
52268;SDS011;38224;50.950;4.100;2023-07-13T02:42:25;17.50;;;4.20;;
52268;SDS011;38224;50.950;4.100;2023-07-13T02:44:50;12.30;;;2.53;;
52268;SDS011;38224;50.950;4.100;2023-07-13T02:47:15;12.15;;;2.92;;
52268;SDS011;38224;50.950;4.100;2023-07-13T02:49:41;10.35;;;3.47;;
52268;SDS011;38224;50.950;4.100;2023-07-13T02:52:06;12.60;;;2.58;;
52268;SDS011;38224;50.950;4.100;2023-07-13T02:54:31;9.77;;;2.70;;
52268;SDS011;38224;50.950;4.100;2023-07-13T02:56:57;11.82;;;2.60;;
52268;SDS011;38224;50.950;4.100;2023-07-13T02:59:22;13.13;;;2.20;;
52268;SDS011;38224;50.950;4.100;2023-07-13T03:01:47;11.45;;;2.75;;
52268;SDS011;38224;50.950;4.100;2023-07-13T03:04:13;11.75;;;3.20;;
52268;SDS011;38224;50.950;4.100;2023-07-13T03:06:38;11.10;;;2.72;;
52268;SDS011;38224;50.950;4.100;2023-07-13T03:09:04;12.70;;;3.10;;
52268;SDS011;38224;50.950;4.100;2023-07-13T03:11:29;12.98;;;2.80;;
52268;SDS011;38224;50.950;4.100;2023-07-13T03:13:54;13.52;;;2.80;;
52268;SDS011;38224;50.950;4.100;2023-07-13T03:16:20;12.40;;;2.85;;
52268;SDS011;38224;50.950;4.100;2023-07-13T03:18:46;12.27;;;3.22;;
52268;SDS011;38224;50.950;4.100;2023-07-13T03:21:11;16.15;;;2.90;;
52268;SDS011;38224;50.950;4.100;2023-07-13T03:23:37;18.27;;;5.13;;
52268;SDS011;38224;50.950;4.100;2023-07-13T03:26:06;13.40;;;2.80;;
52268;SDS011;38224;50.950;4.100;2023-07-13T03:28:32;9.80;;;3.08;;
52268;SDS011;38224;50.950;4.100;2023-07-13T03:31:04;15.55;;;3.17;;
52268;SDS011;38224;50.950;4.100;2023-07-13T03:33:29;16.27;;;3.70;;
52268;SDS011;38224;50.950;4.100;2023-07-13T03:35:55;14.00;;;3.85;;
52268;SDS011;38224;50.950;4.100;2023-07-13T03:38:20;11.27;;;3.05;;
52268;SDS011;38224;50.950;4.100;2023-07-13T03:40:46;12.60;;;3.42;;
52268;SDS011;38224;50.950;4.100;2023-07-13T03:43:11;10.50;;;2.37;;
52268;SDS011;38224;50.950;4.100;2023-07-13T03:45:40;13.47;;;3.30;;
52268;SDS011;38224;50.950;4.100;2023-07-13T03:48:05;13.40;;;3.33;;
52268;SDS011;38224;50.950;4.100;2023-07-13T03:50:30;16.40;;;3.87;;
52268;SDS011;38224;50.950;4.100;2023-07-13T03:52:57;13.63;;;3.47;;
52268;SDS011;38224;50.950;4.100;2023-07-13T03:55:22;13.32;;;3.55;;
52268;SDS011;38224;50.950;4.100;2023-07-13T03:57:48;10.00;;;3.03;;
52268;SDS011;38224;50.950;4.100;2023-07-13T04:00:13;9.23;;;3.10;;
52268;SDS011;38224;50.950;4.100;2023-07-13T04:02:38;13.40;;;3.38;;
52268;SDS011;38224;50.950;4.100;2023-07-13T04:05:04;15.80;;;2.80;;
52268;SDS011;38224;50.950;4.100;2023-07-13T04:07:29;19.20;;;3.47;;
52268;SDS011;38224;50.950;4.100;2023-07-13T04:09:54;15.50;;;3.27;;
52268;SDS011;38224;50.950;4.100;2023-07-13T04:12:20;20.87;;;4.03;;
52268;SDS011;38224;50.950;4.100;2023-07-13T04:14:45;14.37;;;3.03;;
52268;SDS011;38224;50.950;4.100;2023-07-13T04:17:10;13.50;;;2.92;;
52268;SDS011;38224;50.950;4.100;2023-07-13T04:19:35;12.10;;;3.63;;
52268;SDS011;38224;50.950;4.100;2023-07-13T04:22:00;15.10;;;3.80;;
52268;SDS011;38224;50.950;4.100;2023-07-13T04:24:26;18.10;;;5.32;;
52268;SDS011;38224;50.950;4.100;2023-07-13T04:26:51;10.53;;;2.93;;
52268;SDS011;38224;50.950;4.100;2023-07-13T04:29:16;14.80;;;3.22;;
52268;SDS011;38224;50.950;4.100;2023-07-13T04:31:42;13.10;;;2.80;;
52268;SDS011;38224;50.950;4.100;2023-07-13T04:34:07;16.95;;;3.47;;
52268;SDS011;38224;50.950;4.100;2023-07-13T04:36:32;14.68;;;3.67;;
52268;SDS011;38224;50.950;4.100;2023-07-13T04:38:57;14.83;;;3.20;;
52268;SDS011;38224;50.950;4.100;2023-07-13T04:41:23;15.23;;;2.75;;
52268;SDS011;38224;50.950;4.100;2023-07-13T04:43:48;12.73;;;3.20;;
52268;SDS011;38224;50.950;4.100;2023-07-13T04:46:14;17.27;;;4.93;;
52268;SDS011;38224;50.950;4.100;2023-07-13T04:48:40;22.90;;;3.65;;
52268;SDS011;38224;50.950;4.100;2023-07-13T04:51:05;14.25;;;3.38;;
52268;SDS011;38224;50.950;4.100;2023-07-13T04:53:32;14.52;;;2.75;;
52268;SDS011;38224;50.950;4.100;2023-07-13T04:55:59;13.73;;;3.80;;
52268;SDS011;38224;50.950;4.100;2023-07-13T04:58:24;14.88;;;3.42;;
52268;SDS011;38224;50.950;4.100;2023-07-13T05:00:50;13.20;;;3.25;;
52268;SDS011;38224;50.950;4.100;2023-07-13T05:03:15;15.70;;;3.13;;
52268;SDS011;38224;50.950;4.100;2023-07-13T05:05:41;11.90;;;3.42;;
52268;SDS011;38224;50.950;4.100;2023-07-13T05:08:06;12.40;;;3.75;;
52268;SDS011;38224;50.950;4.100;2023-07-13T05:10:32;11.10;;;3.05;;
52268;SDS011;38224;50.950;4.100;2023-07-13T05:12:58;17.73;;;3.40;;
52268;SDS011;38224;50.950;4.100;2023-07-13T05:15:23;16.90;;;4.20;;
52268;SDS011;38224;50.950;4.100;2023-07-13T05:17:50;14.27;;;3.28;;
52268;SDS011;38224;50.950;4.100;2023-07-13T05:20:16;19.60;;;4.43;;
52268;SDS011;38224;50.950;4.100;2023-07-13T05:22:42;12.20;;;3.65;;
52268;SDS011;38224;50.950;4.100;2023-07-13T05:25:07;16.92;;;3.67;;
52268;SDS011;38224;50.950;4.100;2023-07-13T05:27:33;19.23;;;3.95;;
52268;SDS011;38224;50.950;4.100;2023-07-13T05:29:59;16.05;;;4.10;;
52268;SDS011;38224;50.950;4.100;2023-07-13T05:32:24;18.70;;;4.90;;
52268;SDS011;38224;50.950;4.100;2023-07-13T05:34:50;21.63;;;3.97;;
52268;SDS011;38224;50.950;4.100;2023-07-13T05:37:15;19.60;;;3.30;;
52268;SDS011;38224;50.950;4.100;2023-07-13T05:39:40;20.02;;;4.70;;
52268;SDS011;38224;50.950;4.100;2023-07-13T05:42:06;18.10;;;4.07;;
52268;SDS011;38224;50.950;4.100;2023-07-13T05:44:31;17.42;;;5.10;;
52268;SDS011;38224;50.950;4.100;2023-07-13T05:46:56;22.20;;;4.80;;
52268;SDS011;38224;50.950;4.100;2023-07-13T05:49:22;16.27;;;3.60;;
52268;SDS011;38224;50.950;4.100;2023-07-13T05:51:47;15.05;;;3.60;;
52268;SDS011;38224;50.950;4.100;2023-07-13T05:54:12;14.73;;;3.60;;
52268;SDS011;38224;50.950;4.100;2023-07-13T05:56:38;12.02;;;3.60;;
52268;SDS011;38224;50.950;4.100;2023-07-13T05:59:03;18.20;;;3.67;;
52268;SDS011;38224;50.950;4.100;2023-07-13T06:01:29;20.45;;;3.53;;
52268;SDS011;38224;50.950;4.100;2023-07-13T06:03:54;16.65;;;3.83;;
52268;SDS011;38224;50.950;4.100;2023-07-13T06:06:19;10.50;;;2.93;;
52268;SDS011;38224;50.950;4.100;2023-07-13T06:08:45;16.83;;;3.50;;
52268;SDS011;38224;50.950;4.100;2023-07-13T06:13:35;13.30;;;3.77;;
52268;SDS011;38224;50.950;4.100;2023-07-13T06:16:01;13.35;;;3.47;;
52268;SDS011;38224;50.950;4.100;2023-07-13T06:18:29;20.13;;;3.95;;
52268;SDS011;38224;50.950;4.100;2023-07-13T06:20:54;11.25;;;3.60;;
52268;SDS011;38224;50.950;4.100;2023-07-13T06:23:19;17.13;;;3.20;;
52268;SDS011;38224;50.950;4.100;2023-07-13T06:25:45;11.57;;;3.07;;
52268;SDS011;38224;50.950;4.100;2023-07-13T06:28:10;12.47;;;3.20;;
52268;SDS011;38224;50.950;4.100;2023-07-13T06:30:37;17.60;;;3.27;;
52268;SDS011;38224;50.950;4.100;2023-07-13T06:33:03;14.32;;;4.57;;
52268;SDS011;38224;50.950;4.100;2023-07-13T06:35:28;12.52;;;2.80;;
52268;SDS011;38224;50.950;4.100;2023-07-13T06:37:53;21.47;;;3.87;;
52268;SDS011;38224;50.950;4.100;2023-07-13T06:40:18;16.20;;;3.40;;
52268;SDS011;38224;50.950;4.100;2023-07-13T06:42:44;19.27;;;3.90;;
52268;SDS011;38224;50.950;4.100;2023-07-13T06:45:09;13.15;;;3.55;;
52268;SDS011;38224;50.950;4.100;2023-07-13T06:47:34;15.95;;;3.25;;
52268;SDS011;38224;50.950;4.100;2023-07-13T06:50:00;13.43;;;3.15;;
52268;SDS011;38224;50.950;4.100;2023-07-13T06:52:25;13.00;;;2.92;;
52268;SDS011;38224;50.950;4.100;2023-07-13T06:54:50;17.30;;;3.50;;
52268;SDS011;38224;50.950;4.100;2023-07-13T06:57:16;12.00;;;2.93;;
52268;SDS011;38224;50.950;4.100;2023-07-13T06:59:41;15.00;;;3.78;;
52268;SDS011;38224;50.950;4.100;2023-07-13T07:02:08;13.40;;;3.10;;
52268;SDS011;38224;50.950;4.100;2023-07-13T07:04:33;16.85;;;4.20;;
52268;SDS011;38224;50.950;4.100;2023-07-13T07:06:58;15.47;;;3.07;;
52268;SDS011;38224;50.950;4.100;2023-07-13T07:09:24;10.50;;;3.10;;
52268;SDS011;38224;50.950;4.100;2023-07-13T07:11:49;16.20;;;3.73;;
52268;SDS011;38224;50.950;4.100;2023-07-13T07:14:14;14.77;;;3.33;;
52268;SDS011;38224;50.950;4.100;2023-07-13T07:16:39;11.30;;;2.97;;
52268;SDS011;38224;50.950;4.100;2023-07-13T07:19:05;15.07;;;3.17;;
52268;SDS011;38224;50.950;4.100;2023-07-13T07:21:30;12.13;;;2.97;;
52268;SDS011;38224;50.950;4.100;2023-07-13T07:23:56;8.77;;;2.22;;
52268;SDS011;38224;50.950;4.100;2023-07-13T07:26:21;11.15;;;2.40;;
52268;SDS011;38224;50.950;4.100;2023-07-13T07:28:46;17.17;;;2.93;;
52268;SDS011;38224;50.950;4.100;2023-07-13T07:31:12;9.90;;;2.60;;
52268;SDS011;38224;50.950;4.100;2023-07-13T07:33:37;10.88;;;2.30;;
52268;SDS011;38224;50.950;4.100;2023-07-13T07:36:02;10.50;;;2.47;;
52268;SDS011;38224;50.950;4.100;2023-07-13T07:38:28;11.90;;;2.60;;
52268;SDS011;38224;50.950;4.100;2023-07-13T07:40:53;15.25;;;2.78;;
52268;SDS011;38224;50.950;4.100;2023-07-13T07:43:19;9.83;;;2.50;;
52268;SDS011;38224;50.950;4.100;2023-07-13T07:45:44;8.30;;;2.00;;
52268;SDS011;38224;50.950;4.100;2023-07-13T07:48:10;10.98;;;3.05;;
52268;SDS011;38224;50.950;4.100;2023-07-13T07:50:35;8.05;;;2.65;;
52268;SDS011;38224;50.950;4.100;2023-07-13T07:53:01;10.02;;;3.35;;
52268;SDS011;38224;50.950;4.100;2023-07-13T07:55:27;12.27;;;3.03;;
52268;SDS011;38224;50.950;4.100;2023-07-13T07:57:52;11.80;;;2.85;;
52268;SDS011;38224;50.950;4.100;2023-07-13T08:00:17;9.50;;;2.42;;
52268;SDS011;38224;50.950;4.100;2023-07-13T08:02:43;8.55;;;2.92;;
52268;SDS011;38224;50.950;4.100;2023-07-13T08:05:09;10.80;;;2.13;;
52268;SDS011;38224;50.950;4.100;2023-07-13T08:07:34;11.57;;;3.30;;
52268;SDS011;38224;50.950;4.100;2023-07-13T08:10:00;11.73;;;2.17;;
52268;SDS011;38224;50.950;4.100;2023-07-13T08:12:25;10.67;;;3.13;;
52268;SDS011;38224;50.950;4.100;2023-07-13T08:14:50;10.10;;;2.13;;
52268;SDS011;38224;50.950;4.100;2023-07-13T08:17:22;11.02;;;1.85;;
52268;SDS011;38224;50.950;4.100;2023-07-13T08:19:47;9.18;;;1.85;;
52268;SDS011;38224;50.950;4.100;2023-07-13T08:22:12;6.87;;;1.70;;
52268;SDS011;38224;50.950;4.100;2023-07-13T08:24:38;10.90;;;2.10;;
52268;SDS011;38224;50.950;4.100;2023-07-13T08:27:03;9.70;;;2.28;;
52268;SDS011;38224;50.950;4.100;2023-07-13T08:29:28;9.52;;;2.33;;
52268;SDS011;38224;50.950;4.100;2023-07-13T08:31:57;9.40;;;2.10;;
52268;SDS011;38224;50.950;4.100;2023-07-13T08:34:22;7.50;;;2.20;;
52268;SDS011;38224;50.950;4.100;2023-07-13T08:36:47;11.47;;;2.30;;
52268;SDS011;38224;50.950;4.100;2023-07-13T08:39:13;6.60;;;2.10;;
52268;SDS011;38224;50.950;4.100;2023-07-13T08:41:38;9.93;;;2.40;;
52268;SDS011;38224;50.950;4.100;2023-07-13T08:44:03;8.20;;;2.57;;
52268;SDS011;38224;50.950;4.100;2023-07-13T08:46:36;8.77;;;2.30;;
52268;SDS011;38224;50.950;4.100;2023-07-13T08:49:10;10.95;;;2.80;;
52268;SDS011;38224;50.950;4.100;2023-07-13T08:54:05;5.70;;;1.92;;
52268;SDS011;38224;50.950;4.100;2023-07-13T08:56:33;6.72;;;1.92;;
52268;SDS011;38224;50.950;4.100;2023-07-13T08:59:04;10.02;;;2.90;;
52268;SDS011;38224;50.950;4.100;2023-07-13T09:04:16;9.20;;;3.05;;
52268;SDS011;38224;50.950;4.100;2023-07-13T09:09:14;8.83;;;1.77;;
52268;SDS011;38224;50.950;4.100;2023-07-13T09:11:46;10.52;;;2.53;;
52268;SDS011;38224;50.950;4.100;2023-07-13T09:14:32;10.23;;;2.13;;
52268;SDS011;38224;50.950;4.100;2023-07-13T09:16:58;9.10;;;2.53;;
52268;SDS011;38224;50.950;4.100;2023-07-13T09:19:26;6.65;;;2.03;;
52268;SDS011;38224;50.950;4.100;2023-07-13T09:21:53;7.35;;;2.05;;
52268;SDS011;38224;50.950;4.100;2023-07-13T09:26:44;5.40;;;1.83;;
52268;SDS011;38224;50.950;4.100;2023-07-13T09:29:15;9.73;;;2.45;;
52268;SDS011;38224;50.950;4.100;2023-07-13T09:31:45;7.28;;;1.88;;
52268;SDS011;38224;50.950;4.100;2023-07-13T09:34:13;7.95;;;1.90;;
52268;SDS011;38224;50.950;4.100;2023-07-13T09:36:38;7.38;;;1.80;;
52268;SDS011;38224;50.950;4.100;2023-07-13T09:41:49;7.68;;;1.75;;
52268;SDS011;38224;50.950;4.100;2023-07-13T09:44:17;7.78;;;1.85;;
52268;SDS011;38224;50.950;4.100;2023-07-13T09:46:44;8.27;;;1.52;;
52268;SDS011;38224;50.950;4.100;2023-07-13T09:49:10;8.82;;;1.98;;
52268;SDS011;38224;50.950;4.100;2023-07-13T09:51:36;6.68;;;1.48;;
52268;SDS011;38224;50.950;4.100;2023-07-13T09:54:02;7.03;;;1.63;;
52268;SDS011;38224;50.950;4.100;2023-07-13T09:56:28;9.00;;;1.88;;
52268;SDS011;38224;50.950;4.100;2023-07-13T09:58:54;6.25;;;1.60;;
52268;SDS011;38224;50.950;4.100;2023-07-13T10:04:18;4.47;;;1.40;;
52268;SDS011;38224;50.950;4.100;2023-07-13T10:06:44;4.43;;;1.65;;
52268;SDS011;38224;50.950;4.100;2023-07-13T10:09:09;3.42;;;1.33;;
52268;SDS011;38224;50.950;4.100;2023-07-13T10:11:35;5.70;;;1.50;;
52268;SDS011;38224;50.950;4.100;2023-07-13T10:14:13;7.03;;;1.75;;
52268;SDS011;38224;50.950;4.100;2023-07-13T10:16:39;7.90;;;1.27;;
52268;SDS011;38224;50.950;4.100;2023-07-13T10:21:46;8.38;;;1.80;;
52268;SDS011;38224;50.950;4.100;2023-07-13T10:24:24;6.57;;;1.38;;
52268;SDS011;38224;50.950;4.100;2023-07-13T10:29:18;3.97;;;1.40;;
52268;SDS011;38224;50.950;4.100;2023-07-13T10:31:45;6.20;;;1.98;;
52268;SDS011;38224;50.950;4.100;2023-07-13T10:34:11;4.05;;;1.80;;
52268;SDS011;38224;50.950;4.100;2023-07-13T10:36:46;6.03;;;1.42;;
52268;SDS011;38224;50.950;4.100;2023-07-13T10:39:22;6.72;;;1.55;;
52268;SDS011;38224;50.950;4.100;2023-07-13T10:41:52;3.28;;;1.17;;
52268;SDS011;38224;50.950;4.100;2023-07-13T10:44:23;7.40;;;1.75;;
52268;SDS011;38224;50.950;4.100;2023-07-13T10:49:16;7.97;;;1.80;;
52268;SDS011;38224;50.950;4.100;2023-07-13T10:51:42;8.80;;;2.35;;
52268;SDS011;38224;50.950;4.100;2023-07-13T10:56:35;9.15;;;1.95;;
52268;SDS011;38224;50.950;4.100;2023-07-13T10:59:11;7.85;;;2.33;;
52268;SDS011;38224;50.950;4.100;2023-07-13T11:01:46;6.35;;;1.70;;
52268;SDS011;38224;50.950;4.100;2023-07-13T11:04:13;6.13;;;1.52;;
52268;SDS011;38224;50.950;4.100;2023-07-13T11:06:40;6.13;;;1.83;;
52268;SDS011;38224;50.950;4.100;2023-07-13T11:11:43;3.90;;;1.55;;
52268;SDS011;38224;50.950;4.100;2023-07-13T11:14:30;5.27;;;1.70;;
52268;SDS011;38224;50.950;4.100;2023-07-13T11:16:54;4.43;;;1.23;;
52268;SDS011;38224;50.950;4.100;2023-07-13T11:22:01;5.30;;;1.53;;
52268;SDS011;38224;50.950;4.100;2023-07-13T11:24:28;5.45;;;1.48;;
52268;SDS011;38224;50.950;4.100;2023-07-13T11:26:55;3.75;;;1.33;;
52268;SDS011;38224;50.950;4.100;2023-07-13T11:31:55;6.30;;;1.60;;
52268;SDS011;38224;50.950;4.100;2023-07-13T11:34:26;4.65;;;1.70;;
52268;SDS011;38224;50.950;4.100;2023-07-13T11:36:52;9.60;;;2.33;;
52268;SDS011;38224;50.950;4.100;2023-07-13T11:39:18;6.70;;;1.90;;
52268;SDS011;38224;50.950;4.100;2023-07-13T11:41:49;9.18;;;1.90;;
52268;SDS011;38224;50.950;4.100;2023-07-13T11:44:19;12.07;;;2.30;;
52268;SDS011;38224;50.950;4.100;2023-07-13T11:46:49;12.02;;;3.25;;
52268;SDS011;38224;50.950;4.100;2023-07-13T11:49:16;11.70;;;2.25;;
52268;SDS011;38224;50.950;4.100;2023-07-13T11:51:42;10.18;;;2.33;;
52268;SDS011;38224;50.950;4.100;2023-07-13T11:56:53;5.05;;;1.92;;
52268;SDS011;38224;50.950;4.100;2023-07-13T11:59:21;7.65;;;2.15;;
52268;SDS011;38224;50.950;4.100;2023-07-13T12:01:48;5.22;;;1.80;;
52268;SDS011;38224;50.950;4.100;2023-07-13T12:04:20;6.95;;;2.40;;
52268;SDS011;38224;50.950;4.100;2023-07-13T12:06:46;6.82;;;2.22;;
52268;SDS011;38224;50.950;4.100;2023-07-13T12:09:13;5.07;;;2.25;;
52268;SDS011;38224;50.950;4.100;2023-07-13T12:11:40;6.50;;;1.90;;
52268;SDS011;38224;50.950;4.100;2023-07-13T12:14:05;6.22;;;3.05;;
52268;SDS011;38224;50.950;4.100;2023-07-13T12:16:31;4.33;;;2.07;;
52268;SDS011;38224;50.950;4.100;2023-07-13T12:18:58;6.55;;;2.45;;
52268;SDS011;38224;50.950;4.100;2023-07-13T12:21:27;7.88;;;2.78;;
52268;SDS011;38224;50.950;4.100;2023-07-13T12:23:54;6.60;;;2.20;;
52268;SDS011;38224;50.950;4.100;2023-07-13T12:26:20;7.97;;;2.00;;
52268;SDS011;38224;50.950;4.100;2023-07-13T12:28:47;3.33;;;1.70;;
52268;SDS011;38224;50.950;4.100;2023-07-13T12:31:29;4.82;;;1.80;;
52268;SDS011;38224;50.950;4.100;2023-07-13T12:34:01;5.50;;;1.67;;
52268;SDS011;38224;50.950;4.100;2023-07-13T12:36:29;3.70;;;1.40;;
52268;SDS011;38224;50.950;4.100;2023-07-13T12:38:54;2.83;;;1.27;;
52268;SDS011;38224;50.950;4.100;2023-07-13T12:41:21;3.92;;;1.50;;
52268;SDS011;38224;50.950;4.100;2023-07-13T12:43:48;3.72;;;1.30;;
52268;SDS011;38224;50.950;4.100;2023-07-13T12:46:18;5.95;;;1.50;;
52268;SDS011;38224;50.950;4.100;2023-07-13T12:48:44;3.38;;;1.30;;
52268;SDS011;38224;50.950;4.100;2023-07-13T12:51:13;6.00;;;1.58;;
52268;SDS011;38224;50.950;4.100;2023-07-13T12:53:40;5.03;;;1.60;;
52268;SDS011;38224;50.950;4.100;2023-07-13T12:56:08;6.78;;;1.88;;
52268;SDS011;38224;50.950;4.100;2023-07-13T12:58:38;3.92;;;1.55;;
52268;SDS011;38224;50.950;4.100;2023-07-13T13:01:04;7.43;;;1.65;;
52268;SDS011;38224;50.950;4.100;2023-07-13T13:04:12;6.07;;;1.60;;
52268;SDS011;38224;50.950;4.100;2023-07-13T13:06:25;5.65;;;1.58;;
52268;SDS011;38224;50.950;4.100;2023-07-13T13:08:54;4.55;;;1.38;;
52268;SDS011;38224;50.950;4.100;2023-07-13T13:11:20;4.45;;;1.50;;
52268;SDS011;38224;50.950;4.100;2023-07-13T13:13:48;11.13;;;2.30;;
52268;SDS011;38224;50.950;4.100;2023-07-13T13:18:49;5.47;;;1.45;;
52268;SDS011;38224;50.950;4.100;2023-07-13T13:21:16;6.68;;;1.73;;
52268;SDS011;38224;50.950;4.100;2023-07-13T13:23:41;4.22;;;1.50;;
52268;SDS011;38224;50.950;4.100;2023-07-13T13:26:10;4.55;;;1.70;;
52268;SDS011;38224;50.950;4.100;2023-07-13T13:28:35;3.72;;;1.50;;
52268;SDS011;38224;50.950;4.100;2023-07-13T13:31:01;5.43;;;1.80;;
52268;SDS011;38224;50.950;4.100;2023-07-13T13:33:26;3.37;;;1.47;;
52268;SDS011;38224;50.950;4.100;2023-07-13T13:35:51;3.30;;;1.60;;
52268;SDS011;38224;50.950;4.100;2023-07-13T13:38:19;5.00;;;1.45;;
52268;SDS011;38224;50.950;4.100;2023-07-13T13:40:45;3.38;;;1.50;;
52268;SDS011;38224;50.950;4.100;2023-07-13T13:43:14;3.97;;;1.73;;
52268;SDS011;38224;50.950;4.100;2023-07-13T13:45:41;5.95;;;1.38;;
52268;SDS011;38224;50.950;4.100;2023-07-13T13:48:07;4.32;;;1.42;;
52268;SDS011;38224;50.950;4.100;2023-07-13T13:50:34;7.32;;;2.00;;
52268;SDS011;38224;50.950;4.100;2023-07-13T13:52:59;3.07;;;1.53;;
52268;SDS011;38224;50.950;4.100;2023-07-13T13:55:27;6.80;;;1.45;;
52268;SDS011;38224;50.950;4.100;2023-07-13T13:57:52;4.03;;;1.63;;
52268;SDS011;38224;50.950;4.100;2023-07-13T14:00:17;4.53;;;1.77;;
52268;SDS011;38224;50.950;4.100;2023-07-13T14:02:44;4.85;;;1.67;;
52268;SDS011;38224;50.950;4.100;2023-07-13T14:05:13;6.38;;;1.70;;
52268;SDS011;38224;50.950;4.100;2023-07-13T14:07:38;11.30;;;1.80;;
52268;SDS011;38224;50.950;4.100;2023-07-13T14:10:08;5.22;;;1.80;;
52268;SDS011;38224;50.950;4.100;2023-07-13T14:12:34;5.10;;;1.75;;
52268;SDS011;38224;50.950;4.100;2023-07-13T14:14:59;4.10;;;1.33;;
52268;SDS011;38224;50.950;4.100;2023-07-13T14:17:25;6.60;;;1.67;;
52268;SDS011;38224;50.950;4.100;2023-07-13T14:19:51;4.43;;;1.77;;
52268;SDS011;38224;50.950;4.100;2023-07-13T14:22:22;5.68;;;1.60;;
52268;SDS011;38224;50.950;4.100;2023-07-13T14:24:47;6.30;;;1.77;;
52268;SDS011;38224;50.950;4.100;2023-07-13T14:27:12;5.60;;;1.67;;
52268;SDS011;38224;50.950;4.100;2023-07-13T14:29:38;4.43;;;1.85;;
52268;SDS011;38224;50.950;4.100;2023-07-13T14:32:04;3.00;;;1.33;;
52268;SDS011;38224;50.950;4.100;2023-07-13T14:34:31;8.63;;;1.88;;
52268;SDS011;38224;50.950;4.100;2023-07-13T14:36:56;7.35;;;2.00;;
52268;SDS011;38224;50.950;4.100;2023-07-13T14:39:24;7.93;;;1.83;;
52268;SDS011;38224;50.950;4.100;2023-07-13T14:41:50;5.35;;;1.90;;
52268;SDS011;38224;50.950;4.100;2023-07-13T14:44:17;8.27;;;1.88;;
52268;SDS011;38224;50.950;4.100;2023-07-13T14:46:43;3.40;;;1.60;;
52268;SDS011;38224;50.950;4.100;2023-07-13T14:49:15;5.85;;;2.20;;
52268;SDS011;38224;50.950;4.100;2023-07-13T14:51:41;3.57;;;1.77;;
52268;SDS011;38224;50.950;4.100;2023-07-13T14:54:08;4.20;;;1.45;;
52268;SDS011;38224;50.950;4.100;2023-07-13T14:56:33;3.00;;;1.50;;
52268;SDS011;38224;50.950;4.100;2023-07-13T14:58:59;3.78;;;1.70;;
52268;SDS011;38224;50.950;4.100;2023-07-13T15:01:24;3.37;;;1.37;;
52268;SDS011;38224;50.950;4.100;2023-07-13T15:03:50;4.13;;;1.83;;
52268;SDS011;38224;50.950;4.100;2023-07-13T15:06:16;4.20;;;1.92;;
52268;SDS011;38224;50.950;4.100;2023-07-13T15:08:43;5.13;;;1.50;;
52268;SDS011;38224;50.950;4.100;2023-07-13T15:11:09;2.80;;;1.30;;
52268;SDS011;38224;50.950;4.100;2023-07-13T15:13:41;3.65;;;1.75;;
52268;SDS011;38224;50.950;4.100;2023-07-13T15:16:22;3.78;;;1.50;;
52268;SDS011;38224;50.950;4.100;2023-07-13T15:18:48;3.78;;;1.58;;
52268;SDS011;38224;50.950;4.100;2023-07-13T15:21:20;5.38;;;1.50;;